sensor_id;sensor_type;location;lat;lon;timestamp;temperature;humidity
7427;DHT22;3755;59.316;18.092;2023-04-03T00:01:13;-2.70;99.90
7427;DHT22;3755;59.316;18.092;2023-04-03T00:03:50;-2.70;99.90
7427;DHT22;3755;59.316;18.092;2023-04-03T00:06:18;-2.70;99.90
7427;DHT22;3755;59.316;18.092;2023-04-03T00:08:46;-2.70;99.90
7427;DHT22;3755;59.316;18.092;2023-04-03T00:11:15;-2.70;99.90
7427;DHT22;3755;59.316;18.092;2023-04-03T00:13:44;-2.70;99.90
7427;DHT22;3755;59.316;18.092;2023-04-03T00:16:12;-2.70;99.90
7427;DHT22;3755;59.316;18.092;2023-04-03T00:18:40;-2.70;99.90
7427;DHT22;3755;59.316;18.092;2023-04-03T00:21:13;-2.70;99.90
7427;DHT22;3755;59.316;18.092;2023-04-03T00:23:41;-2.70;99.90
7427;DHT22;3755;59.316;18.092;2023-04-03T00:26:10;-2.80;99.90
7427;DHT22;3755;59.316;18.092;2023-04-03T00:28:38;-2.80;99.90
7427;DHT22;3755;59.316;18.092;2023-04-03T00:31:06;-2.80;99.90
7427;DHT22;3755;59.316;18.092;2023-04-03T00:33:33;-2.70;99.90
7427;DHT22;3755;59.316;18.092;2023-04-03T00:36:05;-2.70;99.90
7427;DHT22;3755;59.316;18.092;2023-04-03T00:38:37;-2.70;99.90
7427;DHT22;3755;59.316;18.092;2023-04-03T00:41:06;-2.70;99.90
7427;DHT22;3755;59.316;18.092;2023-04-03T00:43:34;-2.70;99.90
7427;DHT22;3755;59.316;18.092;2023-04-03T00:46:03;-3.10;99.90
7427;DHT22;3755;59.316;18.092;2023-04-03T00:48:32;-2.70;99.90
7427;DHT22;3755;59.316;18.092;2023-04-03T00:51:00;-2.70;99.90
7427;DHT22;3755;59.316;18.092;2023-04-03T00:53:35;-2.70;99.90
7427;DHT22;3755;59.316;18.092;2023-04-03T00:56:06;-2.70;99.90
7427;DHT22;3755;59.316;18.092;2023-04-03T00:58:39;-2.80;99.90
7427;DHT22;3755;59.316;18.092;2023-04-03T01:01:10;-2.70;99.90
7427;DHT22;3755;59.316;18.092;2023-04-03T01:03:39;-2.70;99.90
7427;DHT22;3755;59.316;18.092;2023-04-03T01:06:06;-2.70;99.90
7427;DHT22;3755;59.316;18.092;2023-04-03T01:08:36;-2.70;99.90
7427;DHT22;3755;59.316;18.092;2023-04-03T01:11:03;-2.80;99.90
7427;DHT22;3755;59.316;18.092;2023-04-03T01:13:32;-2.80;99.90
7427;DHT22;3755;59.316;18.092;2023-04-03T01:16:02;-2.80;99.90
7427;DHT22;3755;59.316;18.092;2023-04-03T01:18:31;-2.80;99.90
7427;DHT22;3755;59.316;18.092;2023-04-03T01:24:00;-2.80;99.90
7427;DHT22;3755;59.316;18.092;2023-04-03T01:26:30;-2.80;99.90
7427;DHT22;3755;59.316;18.092;2023-04-03T01:28:59;-2.80;99.90
7427;DHT22;3755;59.316;18.092;2023-04-03T01:31:29;-2.80;99.90
7427;DHT22;3755;59.316;18.092;2023-04-03T01:33:59;-2.80;99.90
7427;DHT22;3755;59.316;18.092;2023-04-03T01:36:28;-2.80;99.90
7427;DHT22;3755;59.316;18.092;2023-04-03T01:38:57;-2.80;99.90
7427;DHT22;3755;59.316;18.092;2023-04-03T01:41:25;-2.80;99.90
7427;DHT22;3755;59.316;18.092;2023-04-03T01:43:52;-2.80;99.90
7427;DHT22;3755;59.316;18.092;2023-04-03T01:46:20;-2.80;99.90
7427;DHT22;3755;59.316;18.092;2023-04-03T01:48:48;-2.80;99.90
7427;DHT22;3755;59.316;18.092;2023-04-03T01:51:17;-2.80;99.90
7427;DHT22;3755;59.316;18.092;2023-04-03T01:53:45;-2.90;99.90
7427;DHT22;3755;59.316;18.092;2023-04-03T01:56:14;-2.80;99.90
7427;DHT22;3755;59.316;18.092;2023-04-03T01:58:41;-2.80;99.90
7427;DHT22;3755;59.316;18.092;2023-04-03T02:01:08;-2.70;99.90
7427;DHT22;3755;59.316;18.092;2023-04-03T02:03:35;-2.80;99.90
7427;DHT22;3755;59.316;18.092;2023-04-03T02:06:03;-2.80;99.90
7427;DHT22;3755;59.316;18.092;2023-04-03T02:08:32;-2.80;99.90
7427;DHT22;3755;59.316;18.092;2023-04-03T02:10:59;-2.80;99.90
7427;DHT22;3755;59.316;18.092;2023-04-03T02:13:27;-2.80;99.90
7427;DHT22;3755;59.316;18.092;2023-04-03T02:15:54;-2.80;99.90
7427;DHT22;3755;59.316;18.092;2023-04-03T02:18:21;-2.80;99.90
7427;DHT22;3755;59.316;18.092;2023-04-03T02:20:48;-2.80;99.90
7427;DHT22;3755;59.316;18.092;2023-04-03T02:23:16;-2.80;99.90
7427;DHT22;3755;59.316;18.092;2023-04-03T02:25:45;-2.80;99.90
7427;DHT22;3755;59.316;18.092;2023-04-03T02:28:15;-2.80;99.90
7427;DHT22;3755;59.316;18.092;2023-04-03T02:30:42;-2.90;99.90
7427;DHT22;3755;59.316;18.092;2023-04-03T02:33:09;-2.90;99.90
7427;DHT22;3755;59.316;18.092;2023-04-03T02:35:37;-2.90;99.90
7427;DHT22;3755;59.316;18.092;2023-04-03T02:38:05;-2.90;99.90
7427;DHT22;3755;59.316;18.092;2023-04-03T02:40:33;-2.90;99.90
7427;DHT22;3755;59.316;18.092;2023-04-03T02:43:01;-2.90;99.90
7427;DHT22;3755;59.316;18.092;2023-04-03T02:45:28;-2.90;99.90
7427;DHT22;3755;59.316;18.092;2023-04-03T02:47:56;-2.90;99.90
7427;DHT22;3755;59.316;18.092;2023-04-03T02:50:23;-2.90;99.90
7427;DHT22;3755;59.316;18.092;2023-04-03T02:52:50;-2.90;99.90
7427;DHT22;3755;59.316;18.092;2023-04-03T02:55:17;-2.90;99.90
7427;DHT22;3755;59.316;18.092;2023-04-03T02:57:45;-3.00;99.90
7427;DHT22;3755;59.316;18.092;2023-04-03T03:00:14;-2.90;99.90
7427;DHT22;3755;59.316;18.092;2023-04-03T03:02:42;-2.90;99.90
7427;DHT22;3755;59.316;18.092;2023-04-03T03:05:10;-3.00;99.90
7427;DHT22;3755;59.316;18.092;2023-04-03T03:07:37;-3.00;99.90
7427;DHT22;3755;59.316;18.092;2023-04-03T03:10:05;-3.00;99.90
7427;DHT22;3755;59.316;18.092;2023-04-03T03:12:32;-2.90;99.90
7427;DHT22;3755;59.316;18.092;2023-04-03T03:15:01;-2.90;99.90
7427;DHT22;3755;59.316;18.092;2023-04-03T03:17:29;-3.00;99.90
7427;DHT22;3755;59.316;18.092;2023-04-03T03:19:58;-3.00;99.90
7427;DHT22;3755;59.316;18.092;2023-04-03T03:22:26;-3.00;99.90
7427;DHT22;3755;59.316;18.092;2023-04-03T03:24:53;-3.00;99.90
7427;DHT22;3755;59.316;18.092;2023-04-03T03:27:21;-2.90;99.90
7427;DHT22;3755;59.316;18.092;2023-04-03T03:29:48;-3.00;99.90
7427;DHT22;3755;59.316;18.092;2023-04-03T03:32:16;-3.00;99.90
7427;DHT22;3755;59.316;18.092;2023-04-03T03:34:44;-3.00;99.90
7427;DHT22;3755;59.316;18.092;2023-04-03T03:37:12;-3.10;99.90
7427;DHT22;3755;59.316;18.092;2023-04-03T03:39:40;-3.10;99.90
7427;DHT22;3755;59.316;18.092;2023-04-03T03:42:09;-3.10;99.90
7427;DHT22;3755;59.316;18.092;2023-04-03T03:44:38;-3.10;99.90
7427;DHT22;3755;59.316;18.092;2023-04-03T03:47:05;-3.10;99.90
7427;DHT22;3755;59.316;18.092;2023-04-03T03:49:35;-3.20;99.90
7427;DHT22;3755;59.316;18.092;2023-04-03T03:52:04;-3.20;99.90
7427;DHT22;3755;59.316;18.092;2023-04-03T03:54:31;-3.20;99.90
7427;DHT22;3755;59.316;18.092;2023-04-03T03:56:58;-3.30;99.90
7427;DHT22;3755;59.316;18.092;2023-04-03T03:59:26;-3.30;99.90
7427;DHT22;3755;59.316;18.092;2023-04-03T04:01:53;-3.30;99.90
7427;DHT22;3755;59.316;18.092;2023-04-03T04:04:21;-3.30;99.90
7427;DHT22;3755;59.316;18.092;2023-04-03T04:06:48;-3.30;99.90
7427;DHT22;3755;59.316;18.092;2023-04-03T04:09:41;-3.30;99.90
7427;DHT22;3755;59.316;18.092;2023-04-03T04:12:09;-3.40;99.90
7427;DHT22;3755;59.316;18.092;2023-04-03T04:14:39;-3.40;99.90
7427;DHT22;3755;59.316;18.092;2023-04-03T04:17:07;-3.40;99.90
7427;DHT22;3755;59.316;18.092;2023-04-03T04:19:37;-3.40;99.90
7427;DHT22;3755;59.316;18.092;2023-04-03T04:22:05;-3.30;99.90
7427;DHT22;3755;59.316;18.092;2023-04-03T04:24:33;-3.30;99.90
7427;DHT22;3755;59.316;18.092;2023-04-03T04:27:03;-3.30;99.90
7427;DHT22;3755;59.316;18.092;2023-04-03T04:29:32;-3.30;99.90
7427;DHT22;3755;59.316;18.092;2023-04-03T04:32:01;-3.20;99.90
7427;DHT22;3755;59.316;18.092;2023-04-03T04:34:28;-3.20;99.90
7427;DHT22;3755;59.316;18.092;2023-04-03T04:36:56;-3.20;99.90
7427;DHT22;3755;59.316;18.092;2023-04-03T04:39:23;-3.30;99.90
7427;DHT22;3755;59.316;18.092;2023-04-03T04:41:52;-3.30;99.90
7427;DHT22;3755;59.316;18.092;2023-04-03T04:44:19;-3.30;99.90
7427;DHT22;3755;59.316;18.092;2023-04-03T04:46:47;-3.30;99.90
7427;DHT22;3755;59.316;18.092;2023-04-03T04:49:15;-3.40;99.90
7427;DHT22;3755;59.316;18.092;2023-04-03T04:51:42;-3.30;99.90
7427;DHT22;3755;59.316;18.092;2023-04-03T04:54:10;-3.30;99.90
7427;DHT22;3755;59.316;18.092;2023-04-03T04:56:37;-3.30;99.90
7427;DHT22;3755;59.316;18.092;2023-04-03T04:59:06;-3.20;99.90
7427;DHT22;3755;59.316;18.092;2023-04-03T05:01:35;-3.10;99.90
7427;DHT22;3755;59.316;18.092;2023-04-03T05:04:06;-3.10;99.90
7427;DHT22;3755;59.316;18.092;2023-04-03T05:06:36;-3.10;99.90
7427;DHT22;3755;59.316;18.092;2023-04-03T05:09:04;-3.10;99.90
7427;DHT22;3755;59.316;18.092;2023-04-03T05:11:32;-3.10;99.90
7427;DHT22;3755;59.316;18.092;2023-04-03T05:14:00;-3.00;99.90
7427;DHT22;3755;59.316;18.092;2023-04-03T05:16:34;-3.00;99.90
7427;DHT22;3755;59.316;18.092;2023-04-03T05:19:02;-2.90;99.90
7427;DHT22;3755;59.316;18.092;2023-04-03T05:21:30;-2.80;99.90
7427;DHT22;3755;59.316;18.092;2023-04-03T05:23:58;-2.80;99.90
7427;DHT22;3755;59.316;18.092;2023-04-03T05:26:29;-2.70;99.90
7427;DHT22;3755;59.316;18.092;2023-04-03T05:28:58;-2.70;99.90
7427;DHT22;3755;59.316;18.092;2023-04-03T05:31:25;-2.60;99.90
7427;DHT22;3755;59.316;18.092;2023-04-03T05:33:58;-2.60;99.90
7427;DHT22;3755;59.316;18.092;2023-04-03T05:36:32;-2.50;99.90
7427;DHT22;3755;59.316;18.092;2023-04-03T05:38:59;-2.40;99.90
7427;DHT22;3755;59.316;18.092;2023-04-03T05:41:28;-2.20;99.90
7427;DHT22;3755;59.316;18.092;2023-04-03T05:43:55;-2.30;99.90
7427;DHT22;3755;59.316;18.092;2023-04-03T05:46:23;-2.30;99.90
7427;DHT22;3755;59.316;18.092;2023-04-03T05:48:50;-2.20;99.90
7427;DHT22;3755;59.316;18.092;2023-04-03T05:51:35;-2.10;99.90
7427;DHT22;3755;59.316;18.092;2023-04-03T05:54:10;-2.10;99.90
7427;DHT22;3755;59.316;18.092;2023-04-03T05:56:40;-2.00;99.90
7427;DHT22;3755;59.316;18.092;2023-04-03T05:59:09;-1.90;99.90
7427;DHT22;3755;59.316;18.092;2023-04-03T06:01:37;-1.90;99.90
7427;DHT22;3755;59.316;18.092;2023-04-03T06:04:04;-1.80;99.90
7427;DHT22;3755;59.316;18.092;2023-04-03T06:06:47;-1.60;99.90
7427;DHT22;3755;59.316;18.092;2023-04-03T06:09:18;-1.60;99.90
7427;DHT22;3755;59.316;18.092;2023-04-03T06:11:47;-1.50;99.90
7427;DHT22;3755;59.316;18.092;2023-04-03T06:14:15;-1.50;99.90
7427;DHT22;3755;59.316;18.092;2023-04-03T06:16:58;-1.40;99.90
7427;DHT22;3755;59.316;18.092;2023-04-03T06:19:39;-1.20;99.90
7427;DHT22;3755;59.316;18.092;2023-04-03T06:22:10;-1.10;99.90
7427;DHT22;3755;59.316;18.092;2023-04-03T06:24:40;-1.00;99.90
7427;DHT22;3755;59.316;18.092;2023-04-03T06:27:08;-0.90;99.90
7427;DHT22;3755;59.316;18.092;2023-04-03T06:29:36;-0.80;99.90
7427;DHT22;3755;59.316;18.092;2023-04-03T06:32:04;-0.80;99.90
7427;DHT22;3755;59.316;18.092;2023-04-03T06:34:32;-0.80;99.90
7427;DHT22;3755;59.316;18.092;2023-04-03T06:37:03;-0.70;99.90
7427;DHT22;3755;59.316;18.092;2023-04-03T06:39:32;-0.70;99.90
7427;DHT22;3755;59.316;18.092;2023-04-03T06:42:00;-0.60;99.90
7427;DHT22;3755;59.316;18.092;2023-04-03T06:44:28;-0.60;99.90
7427;DHT22;3755;59.316;18.092;2023-04-03T06:46:55;-0.50;99.90
7427;DHT22;3755;59.316;18.092;2023-04-03T06:49:23;-0.40;99.90
7427;DHT22;3755;59.316;18.092;2023-04-03T06:51:51;-0.30;99.90
7427;DHT22;3755;59.316;18.092;2023-04-03T06:54:18;-0.30;99.90
7427;DHT22;3755;59.316;18.092;2023-04-03T06:56:52;-0.30;99.90
7427;DHT22;3755;59.316;18.092;2023-04-03T06:59:21;-0.20;99.90
7427;DHT22;3755;59.316;18.092;2023-04-03T07:01:48;-0.10;99.90
7427;DHT22;3755;59.316;18.092;2023-04-03T07:04:16;0.00;99.90
7427;DHT22;3755;59.316;18.092;2023-04-03T07:06:44;0.10;99.90
7427;DHT22;3755;59.316;18.092;2023-04-03T07:09:12;0.10;99.90
7427;DHT22;3755;59.316;18.092;2023-04-03T07:11:40;0.20;99.90
7427;DHT22;3755;59.316;18.092;2023-04-03T07:14:09;0.20;99.90
7427;DHT22;3755;59.316;18.092;2023-04-03T07:16:37;0.30;99.90
7427;DHT22;3755;59.316;18.092;2023-04-03T07:19:04;0.30;99.90
7427;DHT22;3755;59.316;18.092;2023-04-03T07:21:34;0.40;99.90
7427;DHT22;3755;59.316;18.092;2023-04-03T07:24:01;0.40;99.90
7427;DHT22;3755;59.316;18.092;2023-04-03T07:26:29;0.40;99.90
7427;DHT22;3755;59.316;18.092;2023-04-03T07:28:57;0.40;99.90
7427;DHT22;3755;59.316;18.092;2023-04-03T07:31:27;0.40;99.90
7427;DHT22;3755;59.316;18.092;2023-04-03T07:33:56;0.40;99.90
7427;DHT22;3755;59.316;18.092;2023-04-03T07:36:23;0.30;99.90
7427;DHT22;3755;59.316;18.092;2023-04-03T07:38:51;0.30;99.90
7427;DHT22;3755;59.316;18.092;2023-04-03T07:41:19;0.30;99.90
7427;DHT22;3755;59.316;18.092;2023-04-03T07:43:48;0.40;99.90
7427;DHT22;3755;59.316;18.092;2023-04-03T07:46:29;0.50;99.90
7427;DHT22;3755;59.316;18.092;2023-04-03T07:52:00;0.70;99.90
7427;DHT22;3755;59.316;18.092;2023-04-03T07:54:42;0.80;99.90
7427;DHT22;3755;59.316;18.092;2023-04-03T07:57:11;1.00;99.90
7427;DHT22;3755;59.316;18.092;2023-04-03T07:59:39;1.00;99.90
7427;DHT22;3755;59.316;18.092;2023-04-03T08:02:09;1.20;99.90
7427;DHT22;3755;59.316;18.092;2023-04-03T08:04:38;1.20;99.90
7427;DHT22;3755;59.316;18.092;2023-04-03T08:07:06;1.30;99.90
7427;DHT22;3755;59.316;18.092;2023-04-03T08:09:37;1.30;99.90
7427;DHT22;3755;59.316;18.092;2023-04-03T08:12:04;1.30;99.90
7427;DHT22;3755;59.316;18.092;2023-04-03T08:14:33;1.40;99.90
7427;DHT22;3755;59.316;18.092;2023-04-03T08:17:02;1.40;99.90
7427;DHT22;3755;59.316;18.092;2023-04-03T08:19:30;1.40;99.90
7427;DHT22;3755;59.316;18.092;2023-04-03T08:21:59;1.20;99.90
7427;DHT22;3755;59.316;18.092;2023-04-03T08:24:30;1.30;99.90
7427;DHT22;3755;59.316;18.092;2023-04-03T08:26:58;1.30;99.90
7427;DHT22;3755;59.316;18.092;2023-04-03T08:29:42;1.40;99.90
7427;DHT22;3755;59.316;18.092;2023-04-03T08:32:24;1.40;99.90
7427;DHT22;3755;59.316;18.092;2023-04-03T08:34:51;1.40;99.90
7427;DHT22;3755;59.316;18.092;2023-04-03T08:37:20;1.60;99.90
7427;DHT22;3755;59.316;18.092;2023-04-03T08:39:48;1.70;99.90
7427;DHT22;3755;59.316;18.092;2023-04-03T08:42:19;1.70;99.90
7427;DHT22;3755;59.316;18.092;2023-04-03T08:44:55;1.80;99.90
7427;DHT22;3755;59.316;18.092;2023-04-03T08:47:30;1.80;99.90
7427;DHT22;3755;59.316;18.092;2023-04-03T08:50:02;1.80;99.90
7427;DHT22;3755;59.316;18.092;2023-04-03T08:52:37;1.70;99.90
7427;DHT22;3755;59.316;18.092;2023-04-03T08:55:07;1.80;99.90
7427;DHT22;3755;59.316;18.092;2023-04-03T08:57:43;1.80;99.90
7427;DHT22;3755;59.316;18.092;2023-04-03T09:00:28;1.90;99.90
7427;DHT22;3755;59.316;18.092;2023-04-03T09:02:57;2.00;99.90
7427;DHT22;3755;59.316;18.092;2023-04-03T09:05:35;2.10;99.90
7427;DHT22;3755;59.316;18.092;2023-04-03T09:08:14;2.20;99.90
7427;DHT22;3755;59.316;18.092;2023-04-03T09:10:43;2.30;99.90
7427;DHT22;3755;59.316;18.092;2023-04-03T09:13:19;2.20;99.90
7427;DHT22;3755;59.316;18.092;2023-04-03T09:15:57;2.30;99.90
7427;DHT22;3755;59.316;18.092;2023-04-03T09:18:28;2.30;99.10
7427;DHT22;3755;59.316;18.092;2023-04-03T09:21:04;2.30;98.10
7427;DHT22;3755;59.316;18.092;2023-04-03T09:23:50;2.30;97.60
7427;DHT22;3755;59.316;18.092;2023-04-03T09:26:21;2.40;97.90
7427;DHT22;3755;59.316;18.092;2023-04-03T09:29:06;3.40;98.50
7427;DHT22;3755;59.316;18.092;2023-04-03T09:31:37;2.40;97.70
7427;DHT22;3755;59.316;18.092;2023-04-03T09:34:10;2.50;98.40
7427;DHT22;3755;59.316;18.092;2023-04-03T09:36:42;2.50;98.80
7427;DHT22;3755;59.316;18.092;2023-04-03T09:39:29;2.60;98.60
7427;DHT22;3755;59.316;18.092;2023-04-03T09:42:21;2.60;98.40
7427;DHT22;3755;59.316;18.092;2023-04-03T09:45:05;2.70;98.40
7427;DHT22;3755;59.316;18.092;2023-04-03T09:47:33;2.80;97.40
7427;DHT22;3755;59.316;18.092;2023-04-03T09:50:19;2.80;96.00
7427;DHT22;3755;59.316;18.092;2023-04-03T09:53:05;2.80;96.40
7427;DHT22;3755;59.316;18.092;2023-04-03T09:55:53;2.80;96.90
7427;DHT22;3755;59.316;18.092;2023-04-03T09:59:06;2.90;97.00
7427;DHT22;3755;59.316;18.092;2023-04-03T10:02:03;3.00;96.20
7427;DHT22;3755;59.316;18.092;2023-04-03T10:04:44;3.10;95.90
7427;DHT22;3755;59.316;18.092;2023-04-03T10:07:28;3.20;95.50
7427;DHT22;3755;59.316;18.092;2023-04-03T10:09:57;3.30;95.50
7427;DHT22;3755;59.316;18.092;2023-04-03T10:12:27;3.20;94.20
7427;DHT22;3755;59.316;18.092;2023-04-03T10:15:12;3.30;93.00
7427;DHT22;3755;59.316;18.092;2023-04-03T10:17:50;3.40;92.90
7427;DHT22;3755;59.316;18.092;2023-04-03T10:20:31;3.50;92.80
7427;DHT22;3755;59.316;18.092;2023-04-03T10:23:14;3.60;93.00
7427;DHT22;3755;59.316;18.092;2023-04-03T10:26:11;3.40;91.90
7427;DHT22;3755;59.316;18.092;2023-04-03T10:28:51;3.30;92.80
7427;DHT22;3755;59.316;18.092;2023-04-03T10:31:27;3.40;92.90
7427;DHT22;3755;59.316;18.092;2023-04-03T10:34:02;3.50;93.10
7427;DHT22;3755;59.316;18.092;2023-04-03T10:36:39;3.30;90.60
7427;DHT22;3755;59.316;18.092;2023-04-03T10:39:21;3.40;91.20
7427;DHT22;3755;59.316;18.092;2023-04-03T10:42:05;3.30;91.90
7427;DHT22;3755;59.316;18.092;2023-04-03T10:48:02;3.80;91.80
7427;DHT22;3755;59.316;18.092;2023-04-03T10:50:51;3.50;91.20
7427;DHT22;3755;59.316;18.092;2023-04-03T10:53:34;3.40;90.50
7427;DHT22;3755;59.316;18.092;2023-04-03T10:56:22;3.40;91.70
7427;DHT22;3755;59.316;18.092;2023-04-03T10:58:58;3.40;92.00
7427;DHT22;3755;59.316;18.092;2023-04-03T11:01:32;3.50;90.90
7427;DHT22;3755;59.316;18.092;2023-04-03T11:04:05;3.50;90.60
7427;DHT22;3755;59.316;18.092;2023-04-03T11:06:37;3.70;91.20
7427;DHT22;3755;59.316;18.092;2023-04-03T11:09:17;3.70;90.70
7427;DHT22;3755;59.316;18.092;2023-04-03T11:11:47;3.60;89.00
7427;DHT22;3755;59.316;18.092;2023-04-03T11:14:21;3.60;90.00
7427;DHT22;3755;59.316;18.092;2023-04-03T11:16:58;3.60;89.80
7427;DHT22;3755;59.316;18.092;2023-04-03T11:19:34;3.60;89.60
7427;DHT22;3755;59.316;18.092;2023-04-03T11:22:06;3.70;88.70
7427;DHT22;3755;59.316;18.092;2023-04-03T11:24:38;3.80;87.30
7427;DHT22;3755;59.316;18.092;2023-04-03T11:27:17;3.80;86.00
7427;DHT22;3755;59.316;18.092;2023-04-03T11:29:49;3.90;86.30
7427;DHT22;3755;59.316;18.092;2023-04-03T11:32:31;3.80;85.50
7427;DHT22;3755;59.316;18.092;2023-04-03T11:35:05;3.80;86.30
7427;DHT22;3755;59.316;18.092;2023-04-03T11:37:39;3.90;85.40
7427;DHT22;3755;59.316;18.092;2023-04-03T11:40:16;3.80;83.90
7427;DHT22;3755;59.316;18.092;2023-04-03T11:42:47;3.50;83.10
7427;DHT22;3755;59.316;18.092;2023-04-03T11:45:25;3.70;83.60
7427;DHT22;3755;59.316;18.092;2023-04-03T11:47:58;3.80;85.90
7427;DHT22;3755;59.316;18.092;2023-04-03T11:50:40;4.00;85.30
7427;DHT22;3755;59.316;18.092;2023-04-03T11:53:33;4.10;83.70
7427;DHT22;3755;59.316;18.092;2023-04-03T11:56:30;4.20;81.90
7427;DHT22;3755;59.316;18.092;2023-04-03T11:59:22;4.30;82.10
7427;DHT22;3755;59.316;18.092;2023-04-03T12:01:51;4.10;79.40
7427;DHT22;3755;59.316;18.092;2023-04-03T12:04:20;4.00;80.30
7427;DHT22;3755;59.316;18.092;2023-04-03T12:07:12;4.10;81.70
7427;DHT22;3755;59.316;18.092;2023-04-03T12:09:58;4.10;80.00
7427;DHT22;3755;59.316;18.092;2023-04-03T12:12:33;4.00;78.70
7427;DHT22;3755;59.316;18.092;2023-04-03T12:22:07;4.30;81.60
7427;DHT22;3755;59.316;18.092;2023-04-03T12:24:51;4.40;82.90
7427;DHT22;3755;59.316;18.092;2023-04-03T12:27:38;4.30;76.80
7427;DHT22;3755;59.316;18.092;2023-04-03T12:30:16;4.10;74.10
7427;DHT22;3755;59.316;18.092;2023-04-03T12:36:08;3.60;73.20
7427;DHT22;3755;59.316;18.092;2023-04-03T12:38:58;3.70;72.70
7427;DHT22;3755;59.316;18.092;2023-04-03T12:42:08;4.10;73.80
7427;DHT22;3755;59.316;18.092;2023-04-03T12:44:45;4.20;74.50
7427;DHT22;3755;59.316;18.092;2023-04-03T12:47:28;4.30;73.00
7427;DHT22;3755;59.316;18.092;2023-04-03T12:50:20;4.30;73.70
7427;DHT22;3755;59.316;18.092;2023-04-03T12:53:07;4.20;74.80
7427;DHT22;3755;59.316;18.092;2023-04-03T12:55:41;4.30;75.40
7427;DHT22;3755;59.316;18.092;2023-04-03T12:58:16;4.30;74.00
7427;DHT22;3755;59.316;18.092;2023-04-03T13:00:45;4.30;71.90
7427;DHT22;3755;59.316;18.092;2023-04-03T13:03:22;4.40;72.10
7427;DHT22;3755;59.316;18.092;2023-04-03T13:05:55;4.50;71.70
7427;DHT22;3755;59.316;18.092;2023-04-03T13:08:24;4.40;70.80
7427;DHT22;3755;59.316;18.092;2023-04-03T13:11:01;4.30;70.40
7427;DHT22;3755;59.316;18.092;2023-04-03T13:13:54;4.40;70.20
7427;DHT22;3755;59.316;18.092;2023-04-03T13:16:23;4.50;69.30
7427;DHT22;3755;59.316;18.092;2023-04-03T13:18:53;4.50;69.30
7427;DHT22;3755;59.316;18.092;2023-04-03T13:21:35;4.60;67.70
7427;DHT22;3755;59.316;18.092;2023-04-03T13:24:04;4.70;66.70
7427;DHT22;3755;59.316;18.092;2023-04-03T13:26:48;4.60;66.30
7427;DHT22;3755;59.316;18.092;2023-04-03T13:29:39;4.60;67.70
7427;DHT22;3755;59.316;18.092;2023-04-03T13:32:29;4.70;68.20
7427;DHT22;3755;59.316;18.092;2023-04-03T13:34:58;4.70;68.80
7427;DHT22;3755;59.316;18.092;2023-04-03T13:37:28;4.70;67.60
7427;DHT22;3755;59.316;18.092;2023-04-03T13:39:59;4.70;67.10
7427;DHT22;3755;59.316;18.092;2023-04-03T13:42:32;4.70;67.30
7427;DHT22;3755;59.316;18.092;2023-04-03T13:45:26;4.70;67.50
7427;DHT22;3755;59.316;18.092;2023-04-03T13:48:14;4.80;67.40
7427;DHT22;3755;59.316;18.092;2023-04-03T13:51:00;4.80;68.60
7427;DHT22;3755;59.316;18.092;2023-04-03T13:53:46;4.70;69.60
7427;DHT22;3755;59.316;18.092;2023-04-03T13:56:26;4.70;70.90
7427;DHT22;3755;59.316;18.092;2023-04-03T13:58:59;4.70;71.60
7427;DHT22;3755;59.316;18.092;2023-04-03T14:01:41;4.80;70.20
7427;DHT22;3755;59.316;18.092;2023-04-03T14:04:19;4.70;69.60
7427;DHT22;3755;59.316;18.092;2023-04-03T14:06:48;4.70;70.50
7427;DHT22;3755;59.316;18.092;2023-04-03T14:09:16;4.80;71.00
7427;DHT22;3755;59.316;18.092;2023-04-03T14:11:44;4.80;70.90
7427;DHT22;3755;59.316;18.092;2023-04-03T14:14:21;4.60;70.50
7427;DHT22;3755;59.316;18.092;2023-04-03T14:17:13;4.50;71.40
7427;DHT22;3755;59.316;18.092;2023-04-03T14:23:09;5.10;72.30
7427;DHT22;3755;59.316;18.092;2023-04-03T14:25:51;4.60;72.30
7427;DHT22;3755;59.316;18.092;2023-04-03T14:28:21;4.60;72.40
7427;DHT22;3755;59.316;18.092;2023-04-03T14:34:12;4.60;71.80
7427;DHT22;3755;59.316;18.092;2023-04-03T14:36:42;4.40;71.20
7427;DHT22;3755;59.316;18.092;2023-04-03T14:39:16;4.40;72.20
7427;DHT22;3755;59.316;18.092;2023-04-03T14:41:45;4.40;72.20
7427;DHT22;3755;59.316;18.092;2023-04-03T14:44:12;4.50;73.50
7427;DHT22;3755;59.316;18.092;2023-04-03T14:46:42;4.60;73.00
7427;DHT22;3755;59.316;18.092;2023-04-03T14:49:49;4.60;72.50
7427;DHT22;3755;59.316;18.092;2023-04-03T14:52:20;4.50;72.90
7427;DHT22;3755;59.316;18.092;2023-04-03T14:58:04;4.50;74.30
7427;DHT22;3755;59.316;18.092;2023-04-03T15:00:46;4.40;74.90
7427;DHT22;3755;59.316;18.092;2023-04-03T15:03:17;4.40;74.80
7427;DHT22;3755;59.316;18.092;2023-04-03T15:19:37;3.90;76.50
7427;DHT22;3755;59.316;18.092;2023-04-03T15:22:40;4.40;77.00
7427;DHT22;3755;59.316;18.092;2023-04-03T15:25:08;4.40;76.60
7427;DHT22;3755;59.316;18.092;2023-04-03T15:33:10;4.10;77.10
7427;DHT22;3755;59.316;18.092;2023-04-03T15:35:42;4.10;77.40
7427;DHT22;3755;59.316;18.092;2023-04-03T15:38:10;4.10;77.20
7427;DHT22;3755;59.316;18.092;2023-04-03T15:40:41;4.10;77.80
7427;DHT22;3755;59.316;18.092;2023-04-03T15:43:13;4.10;77.30
7427;DHT22;3755;59.316;18.092;2023-04-03T15:45:56;4.10;77.50
7427;DHT22;3755;59.316;18.092;2023-04-03T15:48:38;4.10;78.30
7427;DHT22;3755;59.316;18.092;2023-04-03T15:51:10;4.00;78.60
7427;DHT22;3755;59.316;18.092;2023-04-03T15:53:37;4.00;79.30
7427;DHT22;3755;59.316;18.092;2023-04-03T15:56:16;4.00;79.80
7427;DHT22;3755;59.316;18.092;2023-04-03T15:58:51;4.00;80.20
7427;DHT22;3755;59.316;18.092;2023-04-03T16:01:33;4.00;80.10
7427;DHT22;3755;59.316;18.092;2023-04-03T16:04:20;3.50;79.80
7427;DHT22;3755;59.316;18.092;2023-04-03T16:10:16;3.90;80.30
7427;DHT22;3755;59.316;18.092;2023-04-03T16:13:03;3.80;80.30
7427;DHT22;3755;59.316;18.092;2023-04-03T16:15:45;2.60;79.10
7427;DHT22;3755;59.316;18.092;2023-04-03T16:18:15;3.70;80.60
7427;DHT22;3755;59.316;18.092;2023-04-03T16:20:56;3.60;81.50
7427;DHT22;3755;59.316;18.092;2023-04-03T16:23:57;3.60;81.10
7427;DHT22;3755;59.316;18.092;2023-04-03T16:26:40;3.60;80.90
7427;DHT22;3755;59.316;18.092;2023-04-03T16:29:09;3.60;80.10
7427;DHT22;3755;59.316;18.092;2023-04-03T16:31:52;3.60;80.80
7427;DHT22;3755;59.316;18.092;2023-04-03T16:34:20;3.60;80.80
7427;DHT22;3755;59.316;18.092;2023-04-03T16:36:47;3.60;80.90
7427;DHT22;3755;59.316;18.092;2023-04-03T16:39:18;3.50;80.80
7427;DHT22;3755;59.316;18.092;2023-04-03T16:41:47;3.50;80.60
7427;DHT22;3755;59.316;18.092;2023-04-03T16:44:14;3.50;81.90
7427;DHT22;3755;59.316;18.092;2023-04-03T16:46:42;3.50;81.50
7427;DHT22;3755;59.316;18.092;2023-04-03T16:49:09;3.80;80.40
7427;DHT22;3755;59.316;18.092;2023-04-03T16:51:36;4.40;80.10
7427;DHT22;3755;59.316;18.092;2023-04-03T16:54:04;4.90;79.00
7427;DHT22;3755;59.316;18.092;2023-04-03T16:56:32;5.20;77.30
7427;DHT22;3755;59.316;18.092;2023-04-03T16:59:09;5.30;75.90
7427;DHT22;3755;59.316;18.092;2023-04-03T17:01:50;5.50;76.00
7427;DHT22;3755;59.316;18.092;2023-04-03T17:04:38;5.60;75.80
7427;DHT22;3755;59.316;18.092;2023-04-03T17:07:25;5.50;75.60
7427;DHT22;3755;59.316;18.092;2023-04-03T17:09:53;5.50;75.20
7427;DHT22;3755;59.316;18.092;2023-04-03T17:12:23;5.20;74.30
7427;DHT22;3755;59.316;18.092;2023-04-03T17:14:52;4.70;74.80
7427;DHT22;3755;59.316;18.092;2023-04-03T17:17:22;4.50;75.60
7427;DHT22;3755;59.316;18.092;2023-04-03T17:20:02;4.00;75.60
7427;DHT22;3755;59.316;18.092;2023-04-03T17:22:30;3.60;76.90
7427;DHT22;3755;59.316;18.092;2023-04-03T17:25:01;3.30;78.30